Ana Sayfa
METAR-TAF:

METAR-TAF

Havaalanları :

Portsmouth International Airport at Pease

Portsmouth, New Hampshire, Amerika Birleşik Devletleri

Enlem: 43-05N, Boylam: 070-49W, yükseklik: 31 m

Güncel hava durumu gözlemi

Rapor saat 08:56 UTC de 57 dakika önce yapıldı.
Sakin rüzgar
Sıcaklık 0°C
Nem 64%
Basınç 1019 hPa
Görüş mesafesi: 16.1 km
Açık gökyüzü

METAR: KPSM 280856Z 00000KT 10SM CLR 00/M06 A3010 RMK AO2A SLP196 T00021064 50002

Saat: 05:53 (09:53 UTC)

Tahmin

Rapor saat 05:20 UTC de 4 saat ve 33 dakika önce yapıldı.
Ayın 28'si saat 06 UTC'den ayın 29'si saat 06 UTC'ye kadar geçerli Tahmin
Rüzgar değişken yönden 3 kt
Görüş mesafesi: 10 km
Açık gökyüzü

TAF: KPSM 280520Z 2806/2906 VRB03KT P6SM SKC

4.000'den fazla havaalanı için hava durumu gözlemleri ve tahminleri (METAR ve TAF raporları).

Kullanılabilir istasyonlar harita üzerinde sarı ve kırmızı noktalarla gösterilir.

İstasyonun adını görmek için fareyi noktanın üzerinde gezdirin.

Sonrasında hava gözlem ve tahminlerini görmek için tıklayın.

Haritayı değiştirmek için: yaklaştırmak için siyah artı işaretli yeşil düğmeye ve uzaklaştırmak için de eksi işaretli düğmeye hızla tıklayın; bitişik haritalar için yeşil okları kullanın.


METAR-TAF: